createdAt,value
2023-01-13T00:01:26.116Z,101554.97
2023-01-13T00:03:53.363Z,101563.88
2023-01-13T00:06:28.351Z,101554.81
2023-01-13T00:08:55.802Z,101545.72
2023-01-13T00:11:23.324Z,101549.13
2023-01-13T00:13:50.756Z,101539.84
2023-01-13T00:16:20.294Z,101559.88
2023-01-13T00:18:48.381Z,101537.66
2023-01-13T00:21:18.200Z,101559.22
2023-01-13T00:23:46.192Z,101557.34
2023-01-13T00:26:16.994Z,101548.06
2023-01-13T00:28:44.672Z,101540.25
2023-01-13T00:31:17.690Z,101522.75
2023-01-13T00:33:45.295Z,101521.69
2023-01-13T00:36:15.682Z,101544.88
2023-01-13T00:38:43.641Z,101534.69
2023-01-13T00:41:13.926Z,101502.53
2023-01-13T00:43:43.002Z,101534.88
2023-01-13T00:46:12.953Z,101540.09
2023-01-13T00:48:40.177Z,101553.09
2023-01-13T00:51:11.425Z,101544.69
2023-01-13T00:53:45.045Z,101508.09
2023-01-13T00:56:30.565Z,101548.69
2023-01-13T00:59:11.459Z,101520.31
2023-01-13T01:01:39.161Z,101541.69
2023-01-13T01:04:06.982Z,101518.53
2023-01-13T01:06:41.247Z,101460.66
2023-01-13T01:09:15.090Z,101492.59
2023-01-13T01:11:43.653Z,101502.31
2023-01-13T01:14:13.262Z,101540.13
2023-01-13T01:16:41.855Z,101552.25
2023-01-13T01:19:10.441Z,101534.75
2023-01-13T01:21:37.656Z,101532.25
2023-01-13T01:24:05.746Z,101536.72
2023-01-13T01:26:33.525Z,101541.56
2023-01-13T01:29:02.526Z,101538.75
2023-01-13T01:31:32.850Z,101537.53
2023-01-13T01:34:01.242Z,101544.69
2023-01-13T01:36:32.308Z,101544.69
2023-01-13T01:39:00.271Z,101525.00
2023-01-13T01:41:32.099Z,101542.97
2023-01-13T01:44:28.788Z,101541.69
2023-01-13T01:46:57.920Z,101502.31
2023-01-13T01:49:30.907Z,101542.69
2023-01-13T01:52:23.828Z,101539.09
2023-01-13T01:55:17.200Z,101538.09
2023-01-13T01:58:30.128Z,101533.41
2023-01-13T02:00:58.539Z,101525.56
2023-01-13T02:03:26.005Z,101523.88
2023-01-13T02:05:53.721Z,101520.09
2023-01-13T02:08:21.781Z,101526.44
2023-01-13T02:10:54.149Z,101532.56
2023-01-13T02:13:23.173Z,101524.75
2023-01-13T02:15:53.218Z,101521.91
2023-01-13T02:18:50.974Z,101512.22
2023-01-13T02:21:36.460Z,101497.66
2023-01-13T02:24:28.176Z,101522.81
2023-01-13T02:27:20.036Z,101516.03
2023-01-13T02:30:30.338Z,101512.66
2023-01-13T02:33:22.967Z,101508.00
2023-01-13T02:35:58.004Z,101529.16
2023-01-13T02:38:30.321Z,101527.53
2023-01-13T02:41:24.478Z,101535.91
2023-01-13T02:44:08.896Z,101517.28
2023-01-13T02:46:59.645Z,101516.75
2023-01-13T02:49:37.762Z,101505.09
2023-01-13T02:52:22.014Z,101519.44
2023-01-13T02:54:55.579Z,101513.75
2023-01-13T02:57:26.910Z,101502.34
2023-01-13T02:59:56.133Z,101501.75
2023-01-13T03:02:25.307Z,101510.47
2023-01-13T03:04:58.759Z,101503.53
2023-01-13T03:07:53.654Z,101522.78
2023-01-13T03:10:33.546Z,101514.53
2023-01-13T03:13:29.065Z,101512.84
2023-01-13T03:16:18.982Z,101518.38
2023-01-13T03:19:21.854Z,101521.56
2023-01-13T03:21:57.941Z,101525.19
2023-01-13T03:24:52.088Z,101493.94
2023-01-13T03:27:31.506Z,101512.34
2023-01-13T03:30:12.142Z,101512.75
2023-01-13T03:32:49.341Z,101498.53
2023-01-13T03:35:26.620Z,101496.69
2023-01-13T03:38:02.905Z,101494.97
2023-01-13T03:40:36.049Z,101496.25
2023-01-13T03:43:29.331Z,101505.75
2023-01-13T03:46:04.207Z,101499.41
2023-01-13T03:48:34.789Z,101497.94
2023-01-13T03:51:14.548Z,101507.84
2023-01-13T03:53:52.553Z,101488.88
2023-01-13T03:56:28.264Z,101499.44
2023-01-13T03:58:59.583Z,101493.28
2023-01-13T04:01:40.362Z,101509.34
2023-01-13T04:04:18.869Z,101501.09
2023-01-13T04:07:01.675Z,101489.75
2023-01-13T04:09:28.945Z,101504.75
2023-01-13T04:12:05.477Z,101511.03
2023-01-13T04:14:32.770Z,101494.34
2023-01-13T04:17:00.184Z,101495.66
2023-01-13T04:19:27.439Z,101475.94
2023-01-13T04:21:54.786Z,101493.44
2023-01-13T04:24:23.016Z,101515.16
2023-01-13T04:26:51.165Z,101502.09
2023-01-13T04:29:18.351Z,101476.97
2023-01-13T04:31:45.486Z,101499.13
2023-01-13T04:34:13.594Z,101486.44
2023-01-13T04:36:40.916Z,101509.66
2023-01-13T04:39:08.089Z,101496.03
2023-01-13T04:41:53.905Z,101510.56
2023-01-13T04:44:21.105Z,101505.88
2023-01-13T04:46:48.319Z,101502.09
2023-01-13T04:49:16.091Z,101497.06
2023-01-13T04:51:43.345Z,101498.69
2023-01-13T04:54:11.639Z,101522.50
2023-01-13T04:56:38.827Z,101495.19
2023-01-13T04:59:06.390Z,101488.44
2023-01-13T05:01:33.874Z,101488.94
2023-01-13T05:04:01.978Z,101483.41
2023-01-13T05:06:29.827Z,101509.16
2023-01-13T05:08:57.540Z,101507.19
2023-01-13T05:11:43.610Z,101500.69
2023-01-13T05:14:29.132Z,101498.84
2023-01-13T05:17:00.576Z,101506.22
2023-01-13T05:19:36.708Z,101507.31
2023-01-13T05:22:22.943Z,101512.59
2023-01-13T05:25:08.703Z,101481.56
2023-01-13T05:27:36.443Z,101525.59
2023-01-13T05:30:04.268Z,101519.06
2023-01-13T05:32:31.817Z,101518.03
2023-01-13T05:35:00.202Z,101492.94
2023-01-13T05:37:28.020Z,101518.28
2023-01-13T05:40:14.064Z,101496.38
2023-01-13T05:42:59.725Z,101524.25
2023-01-13T05:45:27.115Z,101504.88
2023-01-13T05:47:54.632Z,101498.75
2023-01-13T05:50:21.934Z,101515.69
2023-01-13T05:52:49.338Z,101508.97
2023-01-13T05:55:16.789Z,101525.50
2023-01-13T05:57:44.096Z,101516.00
2023-01-13T06:00:11.735Z,101492.56
2023-01-13T06:02:39.357Z,101490.69
2023-01-13T06:05:06.820Z,101506.50
2023-01-13T06:07:34.093Z,101520.69
2023-01-13T06:10:01.343Z,101513.53
2023-01-13T06:12:28.888Z,101501.97
2023-01-13T06:14:56.220Z,101492.66
2023-01-13T06:17:23.393Z,101516.34
2023-01-13T06:19:51.495Z,101498.81
2023-01-13T06:22:23.813Z,101493.53
2023-01-13T06:24:53.718Z,101518.25
2023-01-13T06:27:22.551Z,101502.41
2023-01-13T06:29:50.141Z,101500.69
2023-01-13T06:32:27.073Z,101519.53
2023-01-13T06:35:01.063Z,101522.06
2023-01-13T06:37:31.495Z,101520.63
2023-01-13T06:40:02.246Z,101511.75
2023-01-13T06:42:53.556Z,101510.47
2023-01-13T06:45:22.134Z,101519.75
2023-01-13T06:47:49.837Z,101508.38
2023-01-13T06:50:18.965Z,101505.84
2023-01-13T06:52:46.140Z,101507.09
2023-01-13T06:55:13.209Z,101506.66
2023-01-13T06:57:57.375Z,101520.81
2023-01-13T07:00:26.244Z,101529.91
2023-01-13T07:02:53.740Z,101517.66
2023-01-13T07:05:21.786Z,101517.25
2023-01-13T07:07:49.172Z,101523.34
2023-01-13T07:10:22.561Z,101540.25
2023-01-13T07:13:08.892Z,101526.94
2023-01-13T07:15:36.681Z,101519.97
2023-01-13T07:18:03.957Z,101528.22
2023-01-13T07:20:31.913Z,101541.72
2023-01-13T07:22:59.516Z,101534.09
2023-01-13T07:25:26.935Z,101534.13
2023-01-13T07:27:57.703Z,101525.84
2023-01-13T07:30:24.923Z,101542.56
2023-01-13T07:32:53.099Z,101519.09
2023-01-13T07:35:23.205Z,101531.59
2023-01-13T07:37:50.496Z,101517.63
2023-01-13T07:40:17.895Z,101548.50
2023-01-13T07:43:03.483Z,101537.53
2023-01-13T07:45:30.830Z,101549.34
2023-01-13T07:47:58.163Z,101545.97
2023-01-13T07:50:25.603Z,101523.38
2023-01-13T07:52:53.115Z,101545.13
2023-01-13T07:55:20.636Z,101542.19
2023-01-13T07:57:48.749Z,101531.59
2023-01-13T08:00:16.740Z,101541.34
2023-01-13T08:02:43.914Z,101531.22
2023-01-13T08:05:11.421Z,101531.63
2023-01-13T08:07:38.803Z,101532.25
2023-01-13T08:10:06.714Z,101541.56
2023-01-13T08:12:56.197Z,101526.13
2023-01-13T08:15:24.431Z,101542.63
2023-01-13T08:17:51.600Z,101503.31
2023-01-13T08:20:19.666Z,101529.50
2023-01-13T08:22:46.813Z,101524.00
2023-01-13T08:25:15.308Z,101533.06
2023-01-13T08:27:42.917Z,101491.03
2023-01-13T08:30:10.994Z,101507.13
2023-01-13T08:32:38.307Z,101518.09
2023-01-13T08:35:05.882Z,101498.88
2023-01-13T08:37:34.564Z,101495.09
2023-01-13T08:40:01.954Z,101495.28
2023-01-13T08:42:31.268Z,101504.38
2023-01-13T08:44:58.895Z,101483.88
2023-01-13T08:47:28.847Z,101491.28
2023-01-13T08:49:56.668Z,101482.19
2023-01-13T08:52:24.228Z,101488.53
2023-01-13T08:54:51.474Z,101472.28
2023-01-13T08:57:19.996Z,101482.22
2023-01-13T08:59:47.317Z,101480.50
2023-01-13T09:02:20.223Z,101475.00
2023-01-13T09:04:48.311Z,101467.81
2023-01-13T09:07:16.288Z,101470.34
2023-01-13T09:09:43.610Z,101470.13
2023-01-13T09:12:34.419Z,101446.06
2023-01-13T09:15:03.475Z,101462.72
2023-01-13T09:17:31.256Z,101470.34
2023-01-13T09:19:58.716Z,101450.00
2023-01-13T09:22:27.586Z,101463.53
2023-01-13T09:24:55.706Z,101450.00
2023-01-13T09:27:23.777Z,101459.94
2023-01-13T09:29:51.156Z,101443.22
2023-01-13T09:32:18.791Z,101442.38
2023-01-13T09:35:03.081Z,101451.22
2023-01-13T09:37:35.072Z,101441.09
2023-01-13T09:40:18.002Z,101442.34
2023-01-13T09:43:33.607Z,101446.81
2023-01-13T09:46:34.710Z,101433.25
2023-01-13T09:49:05.143Z,101404.91
2023-01-13T09:51:46.272Z,101432.56
2023-01-13T09:54:55.838Z,101427.06
2023-01-13T09:57:26.377Z,101429.19
2023-01-13T09:59:53.789Z,101403.38
2023-01-13T10:02:48.391Z,101423.00
2023-01-13T10:05:35.195Z,101423.00
2023-01-13T10:08:10.544Z,101413.47
2023-01-13T10:10:48.830Z,101430.59
2023-01-13T10:13:22.608Z,101415.00
2023-01-13T10:16:02.873Z,101427.44
2023-01-13T10:19:04.522Z,101399.97
2023-01-13T10:21:53.075Z,101420.03
2023-01-13T10:24:44.985Z,101410.56
2023-01-13T10:27:38.311Z,101413.94
2023-01-13T10:30:31.565Z,101409.72
2023-01-13T10:33:10.130Z,101416.94
2023-01-13T10:36:14.172Z,101420.75
2023-01-13T10:38:44.545Z,101400.44
2023-01-13T10:41:15.334Z,101417.06
2023-01-13T10:43:44.014Z,101403.97
2023-01-13T10:46:16.813Z,101394.47
2023-01-13T10:48:47.180Z,101405.03
2023-01-13T10:51:14.759Z,101405.00
2023-01-13T10:53:51.500Z,101385.16
2023-01-13T10:56:21.246Z,101398.25
2023-01-13T10:58:48.845Z,101379.28
2023-01-13T11:01:27.238Z,101392.81
2023-01-13T11:03:55.408Z,101377.44
2023-01-13T11:06:30.160Z,101402.50
2023-01-13T11:08:58.647Z,101398.19
2023-01-13T11:11:25.784Z,101392.22
2023-01-13T11:14:20.308Z,101405.28
2023-01-13T11:16:53.639Z,101384.81
2023-01-13T11:19:25.215Z,101372.13
2023-01-13T11:22:06.119Z,101394.72
2023-01-13T11:24:51.634Z,101372.38
2023-01-13T11:27:38.049Z,101386.22
2023-01-13T11:30:26.490Z,101402.31
2023-01-13T11:33:21.656Z,101397.13
2023-01-13T11:35:58.220Z,101377.31
2023-01-13T11:38:46.852Z,101372.63
2023-01-13T11:41:28.783Z,101391.69
2023-01-13T11:44:19.015Z,101385.06
2023-01-13T11:46:50.360Z,101390.97
2023-01-13T11:49:33.525Z,101386.97
2023-01-13T11:52:33.342Z,101365.66
2023-01-13T11:55:05.220Z,101384.44
2023-01-13T11:57:50.169Z,101394.56
2023-01-13T12:00:17.725Z,101401.28
2023-01-13T12:02:51.495Z,101383.19
2023-01-13T12:05:39.940Z,101405.75
2023-01-13T12:08:34.654Z,101394.47
2023-01-13T12:11:11.311Z,101394.81
2023-01-13T12:14:19.822Z,101386.59
2023-01-13T12:16:51.794Z,101397.78
2023-01-13T12:19:24.701Z,101386.00
2023-01-13T12:22:09.846Z,101398.59
2023-01-13T12:24:55.895Z,101411.78
2023-01-13T12:27:38.936Z,101401.94
2023-01-13T12:30:28.058Z,101391.22
2023-01-13T12:33:03.589Z,101413.66
2023-01-13T12:35:33.604Z,101403.34
2023-01-13T12:38:04.638Z,101409.91
2023-01-13T12:40:48.298Z,101393.81
2023-01-13T12:43:39.905Z,101424.59
2023-01-13T12:46:19.235Z,101418.16
2023-01-13T12:48:57.174Z,101403.81
2023-01-13T12:51:30.042Z,101404.97
2023-01-13T12:53:57.598Z,101396.97
2023-01-13T12:56:41.023Z,101347.38
2023-01-13T12:59:17.741Z,101416.41
2023-01-13T13:01:50.779Z,101410.94
2023-01-13T13:04:39.084Z,101416.84
2023-01-13T13:07:15.815Z,101417.25
2023-01-13T13:09:59.340Z,101427.41
2023-01-13T13:13:01.683Z,101410.56
2023-01-13T13:15:34.430Z,101406.66
2023-01-13T13:18:16.976Z,101438.31
2023-01-13T13:20:54.914Z,101425.41
2023-01-13T13:24:03.081Z,101422.19
2023-01-13T13:26:39.342Z,101415.84
2023-01-13T13:29:24.888Z,101435.53
2023-01-13T13:32:40.714Z,101432.63
2023-01-13T13:35:22.812Z,101425.44
2023-01-13T13:38:33.458Z,101426.19
2023-01-13T13:41:27.755Z,101402.22
2023-01-13T13:44:29.765Z,101429.22
2023-01-13T13:47:02.979Z,101415.03
2023-01-13T13:49:52.444Z,101422.88
2023-01-13T13:52:22.955Z,101431.66
2023-01-13T13:54:57.264Z,101435.41
2023-01-13T13:57:39.831Z,101438.09
2023-01-13T14:00:38.554Z,101433.00
2023-01-13T14:03:25.085Z,101425.44
2023-01-13T14:05:59.781Z,101438.63
2023-01-13T14:08:34.948Z,101421.56
2023-01-13T14:11:43.367Z,101445.03
2023-01-13T14:14:17.138Z,101437.69
2023-01-13T14:16:44.569Z,101440.75
2023-01-13T14:19:34.524Z,101437.22
2023-01-13T14:22:04.224Z,101435.34
2023-01-13T14:24:32.658Z,101437.03
2023-01-13T14:27:18.608Z,101445.75
2023-01-13T14:29:46.426Z,101441.97
2023-01-13T14:32:20.345Z,101443.00
2023-01-13T14:34:47.935Z,101447.44
2023-01-13T14:37:34.889Z,101444.91
2023-01-13T14:40:03.584Z,101479.00
2023-01-13T14:42:31.975Z,101400.13
2023-01-13T14:44:59.312Z,101457.38
2023-01-13T14:47:29.802Z,101455.44
2023-01-13T14:50:13.771Z,101435.94
2023-01-13T14:52:57.210Z,101440.66
2023-01-13T14:55:30.615Z,101456.56
2023-01-13T14:58:23.339Z,101457.97
2023-01-13T15:00:53.082Z,101456.06
2023-01-13T15:03:21.347Z,101457.59
2023-01-13T15:05:51.381Z,101463.31
2023-01-13T15:08:31.775Z,101451.91
2023-01-13T15:11:02.422Z,101460.50
2023-01-13T15:13:29.612Z,101451.41
2023-01-13T15:15:59.567Z,101447.81
2023-01-13T15:18:27.270Z,101454.69
2023-01-13T15:20:54.499Z,101447.44
2023-01-13T15:23:23.463Z,101448.28
2023-01-13T15:25:51.066Z,101458.69
2023-01-13T15:28:22.359Z,101464.06
2023-01-13T15:30:51.146Z,101470.06
2023-01-13T15:33:20.190Z,101439.56
2023-01-13T15:35:52.341Z,101477.06
2023-01-13T15:38:23.187Z,101432.94
2023-01-13T15:40:53.206Z,101472.34
2023-01-13T15:43:41.453Z,101474.91
2023-01-13T15:46:36.195Z,101483.06
2023-01-13T15:49:15.955Z,101453.59
2023-01-13T15:51:47.917Z,101483.56
2023-01-13T15:54:20.294Z,101472.84
2023-01-13T15:56:47.452Z,101457.03
2023-01-13T15:59:27.584Z,101481.00
2023-01-13T16:01:55.748Z,101479.84
2023-01-13T16:04:23.373Z,101484.13
2023-01-13T16:06:50.671Z,101463.13
2023-01-13T16:09:17.953Z,101472.13
2023-01-13T16:11:46.407Z,101478.63
2023-01-13T16:14:20.159Z,101466.25
2023-01-13T16:16:49.368Z,101474.78
2023-01-13T16:19:17.389Z,101484.88
2023-01-13T16:21:48.738Z,101457.44
2023-01-13T16:24:19.585Z,101453.19
2023-01-13T16:26:49.423Z,101453.63
2023-01-13T16:29:27.011Z,101482.59
2023-01-13T16:31:55.227Z,101490.00
2023-01-13T16:34:22.379Z,101484.34
2023-01-13T16:36:50.488Z,101465.78
2023-01-13T16:39:25.728Z,101466.22
2023-01-13T16:41:53.385Z,101467.31
2023-01-13T16:44:21.118Z,101447.59
2023-01-13T16:46:50.024Z,101339.63
2023-01-13T16:49:19.796Z,101324.03
2023-01-13T16:51:51.215Z,101457.75
2023-01-13T16:54:18.886Z,101447.03
2023-01-13T16:56:48.583Z,101445.28
2023-01-13T16:59:16.223Z,101471.06
2023-01-13T17:01:47.259Z,101479.56
2023-01-13T17:04:19.569Z,101481.88
2023-01-13T17:06:55.594Z,101489.69
2023-01-13T17:09:25.098Z,101490.72
2023-01-13T17:11:52.768Z,101485.44
2023-01-13T17:14:23.433Z,101448.72
2023-01-13T17:16:54.770Z,101483.56
2023-01-13T17:19:23.355Z,101486.50
2023-01-13T17:21:53.540Z,101469.66
2023-01-13T17:24:21.313Z,101499.44
2023-01-13T17:26:50.556Z,101443.50
2023-01-13T17:29:23.702Z,101459.09
2023-01-13T17:31:56.622Z,101450.91
2023-01-13T17:34:24.296Z,101470.50
2023-01-13T17:36:51.790Z,101481.69
2023-01-13T17:39:22.457Z,101459.09
2023-01-13T17:41:55.613Z,101465.66
2023-01-13T17:44:23.739Z,101467.75
2023-01-13T17:46:51.528Z,101451.25
2023-01-13T17:49:20.458Z,101476.34
2023-01-13T17:52:00.826Z,101471.91
2023-01-13T17:54:28.186Z,101475.50
2023-01-13T17:56:57.810Z,101463.88
2023-01-13T17:59:27.951Z,101488.97
2023-01-13T18:01:55.408Z,101385.81
2023-01-13T18:04:27.271Z,101455.28
2023-01-13T18:06:57.386Z,101462.25
2023-01-13T18:09:26.443Z,101468.13
2023-01-13T18:11:55.269Z,101453.59
2023-01-13T18:14:31.742Z,101438.59
2023-01-13T18:16:59.292Z,101427.78
2023-01-13T18:19:48.666Z,101449.50
2023-01-13T18:22:36.470Z,101461.69
2023-01-13T18:25:22.699Z,101453.78
2023-01-13T18:27:50.447Z,101463.69
2023-01-13T18:30:17.862Z,101456.72
2023-01-13T18:32:55.950Z,101460.34
2023-01-13T18:35:23.532Z,101387.31
2023-01-13T18:37:53.099Z,101482.22
2023-01-13T18:40:21.234Z,101457.88
2023-01-13T18:42:56.824Z,101459.78
2023-01-13T18:45:39.316Z,101461.16
2023-01-13T18:48:09.500Z,101461.69
2023-01-13T18:50:40.470Z,101392.03
2023-01-13T18:53:11.555Z,101399.03
2023-01-13T18:55:44.306Z,101439.75
2023-01-13T18:58:14.850Z,101316.38
2023-01-13T19:00:48.367Z,101351.16
2023-01-13T19:03:29.906Z,101456.59
2023-01-13T19:06:02.944Z,101446.00
2023-01-13T19:08:34.250Z,101440.50
2023-01-13T19:11:05.971Z,101460.28
2023-01-13T19:13:35.492Z,101455.66
2023-01-13T19:16:07.755Z,101451.84
2023-01-13T19:18:36.651Z,101446.78
2023-01-13T19:21:09.721Z,101452.69
2023-01-13T19:23:39.627Z,101442.00
2023-01-13T19:26:16.398Z,101451.72
2023-01-13T19:28:46.864Z,101414.41
2023-01-13T19:31:17.185Z,101406.81
2023-01-13T19:33:44.449Z,101442.19
2023-01-13T19:36:11.675Z,101445.28
2023-01-13T19:38:39.091Z,101452.25
2023-01-13T19:41:27.353Z,101462.44
2023-01-13T19:44:15.156Z,101442.66
2023-01-13T19:46:43.089Z,101439.69
2023-01-13T19:49:11.593Z,101431.84
2023-01-13T19:51:40.924Z,101446.75
2023-01-13T19:54:08.100Z,101432.88
2023-01-13T19:56:35.549Z,101433.97
2023-01-13T19:59:04.171Z,101438.59
2023-01-13T20:01:38.149Z,101441.50
2023-01-13T20:04:07.636Z,101427.81
2023-01-13T20:06:36.214Z,101439.88
2023-01-13T20:09:05.129Z,101442.97
2023-01-13T20:11:33.304Z,101434.88
2023-01-13T20:14:01.448Z,101443.41
2023-01-13T20:16:30.321Z,101434.59
2023-01-13T20:18:59.672Z,101434.19
2023-01-13T20:21:27.262Z,101432.16
2023-01-13T20:23:55.738Z,101435.13
2023-01-13T20:26:26.015Z,101437.06
2023-01-13T20:28:53.103Z,101455.88
2023-01-13T20:31:20.630Z,101415.00
2023-01-13T20:33:51.238Z,101442.72
2023-01-13T20:36:39.089Z,101432.34
2023-01-13T20:39:09.054Z,101434.72
2023-01-13T20:41:55.836Z,101441.28
2023-01-13T20:44:23.210Z,101428.16
2023-01-13T20:46:51.667Z,101427.91
2023-01-13T20:49:18.793Z,101420.09
2023-01-13T20:51:46.028Z,101421.34
2023-01-13T20:54:14.600Z,101424.63
2023-01-13T20:56:42.163Z,101428.03
2023-01-13T20:59:09.758Z,101421.88
2023-01-13T21:01:37.883Z,101433.41
2023-01-13T21:04:07.144Z,101425.78
2023-01-13T21:06:35.288Z,101421.78
2023-01-13T21:09:03.064Z,101419.66
2023-01-13T21:11:49.380Z,101400.13
2023-01-13T21:14:42.042Z,101424.44
2023-01-13T21:17:34.365Z,101424.00
2023-01-13T21:20:04.347Z,101431.97
2023-01-13T21:22:32.320Z,101420.84
2023-01-13T21:25:00.050Z,101416.84
2023-01-13T21:27:27.557Z,101415.59
2023-01-13T21:29:54.813Z,101413.31
2023-01-13T21:32:22.061Z,101418.00
2023-01-13T21:34:49.618Z,101411.78
2023-01-13T21:37:17.678Z,101406.38
2023-01-13T21:39:45.748Z,101415.69
2023-01-13T21:42:35.917Z,101402.34
2023-01-13T21:45:22.968Z,101418.00
2023-01-13T21:47:50.468Z,101417.34
2023-01-13T21:50:24.042Z,101423.06
2023-01-13T21:52:53.067Z,101387.00
2023-01-13T21:55:30.639Z,101419.34
2023-01-13T21:58:01.183Z,101420.13
2023-01-13T22:00:31.260Z,101413.63
2023-01-13T22:03:01.319Z,101403.00
2023-01-13T22:05:28.540Z,101404.69
2023-01-13T22:07:55.805Z,101404.91
2023-01-13T22:10:25.704Z,101404.91
2023-01-13T22:12:54.761Z,101395.84
2023-01-13T22:15:26.912Z,101419.06
2023-01-13T22:17:55.777Z,101399.88
2023-01-13T22:20:23.491Z,101392.00
2023-01-13T22:22:51.941Z,101418.59
2023-01-13T22:25:20.853Z,101407.22
2023-01-13T22:27:49.645Z,101426.88
2023-01-13T22:30:22.029Z,101411.94
2023-01-13T22:32:50.287Z,101406.19
2023-01-13T22:35:18.581Z,101405.13
2023-01-13T22:37:45.817Z,101392.47
2023-01-13T22:40:13.422Z,101408.97
2023-01-13T22:42:42.150Z,101408.56
2023-01-13T22:45:14.495Z,101413.16
2023-01-13T22:47:42.096Z,101420.34
2023-01-13T22:50:10.944Z,101409.09
2023-01-13T22:52:38.352Z,101428.91
2023-01-13T22:55:07.236Z,101400.03
2023-01-13T22:57:46.989Z,101408.63
2023-01-13T23:00:19.168Z,101394.53
2023-01-13T23:02:47.098Z,101406.56
2023-01-13T23:05:14.832Z,101391.28
2023-01-13T23:07:42.207Z,101412.63
2023-01-13T23:10:10.395Z,101392.59
2023-01-13T23:12:37.558Z,101385.25
2023-01-13T23:15:05.636Z,101407.00
2023-01-13T23:17:32.876Z,101402.13
2023-01-13T23:20:00.962Z,101407.59
2023-01-13T23:22:28.143Z,101414.16
2023-01-13T23:24:55.492Z,101422.78
2023-01-13T23:27:22.638Z,101396.56
2023-01-13T23:29:49.836Z,101404.38
2023-01-13T23:32:16.985Z,101410.94
2023-01-13T23:34:44.344Z,101403.53
2023-01-13T23:37:11.686Z,101413.44
2023-01-13T23:39:38.913Z,101398.50
2023-01-13T23:42:09.264Z,101417.97
2023-01-13T23:44:36.876Z,101419.28
2023-01-13T23:47:04.528Z,101409.00
2023-01-13T23:49:32.201Z,101420.97
2023-01-13T23:51:59.452Z,101407.22
2023-01-13T23:54:27.963Z,101422.44
2023-01-13T23:56:55.997Z,101408.91
2023-01-13T23:59:23.340Z,101433.88
